sensor_id;sensor_type;location;lat;lon;timestamp;temperature;humidity
5779;DHT22;2916;49.798;10.022;2023-02-16T00:01:23;1.20;99.90
5779;DHT22;2916;49.798;10.022;2023-02-16T00:03:51;1.30;99.90
5779;DHT22;2916;49.798;10.022;2023-02-16T00:06:19;1.30;99.90
5779;DHT22;2916;49.798;10.022;2023-02-16T00:08:48;1.20;99.90
5779;DHT22;2916;49.798;10.022;2023-02-16T00:11:18;1.30;99.90
5779;DHT22;2916;49.798;10.022;2023-02-16T00:14:07;1.30;99.90
5779;DHT22;2916;49.798;10.022;2023-02-16T00:16:34;1.40;99.90
5779;DHT22;2916;49.798;10.022;2023-02-16T00:19:01;1.40;99.90
5779;DHT22;2916;49.798;10.022;2023-02-16T00:21:31;1.40;99.90
5779;DHT22;2916;49.798;10.022;2023-02-16T00:23:58;1.40;99.90
5779;DHT22;2916;49.798;10.022;2023-02-16T00:26:26;1.40;99.90
5779;DHT22;2916;49.798;10.022;2023-02-16T00:28:55;1.30;99.90
5779;DHT22;2916;49.798;10.022;2023-02-16T00:31:26;1.20;99.90
5779;DHT22;2916;49.798;10.022;2023-02-16T00:33:53;1.00;99.90
5779;DHT22;2916;49.798;10.022;2023-02-16T00:36:20;1.00;99.90
5779;DHT22;2916;49.798;10.022;2023-02-16T00:38:47;1.10;99.90
5779;DHT22;2916;49.798;10.022;2023-02-16T00:41:16;1.10;99.90
5779;DHT22;2916;49.798;10.022;2023-02-16T00:44:01;1.20;99.90
5779;DHT22;2916;49.798;10.022;2023-02-16T00:46:29;1.20;99.90
5779;DHT22;2916;49.798;10.022;2023-02-16T00:48:56;1.20;99.90
5779;DHT22;2916;49.798;10.022;2023-02-16T00:51:23;1.10;99.90
5779;DHT22;2916;49.798;10.022;2023-02-16T00:53:50;1.10;99.90
5779;DHT22;2916;49.798;10.022;2023-02-16T00:56:18;1.20;99.90
5779;DHT22;2916;49.798;10.022;2023-02-16T00:58:48;1.00;99.90
5779;DHT22;2916;49.798;10.022;2023-02-16T01:01:16;1.00;99.90
5779;DHT22;2916;49.798;10.022;2023-02-16T01:03:45;0.90;99.90
5779;DHT22;2916;49.798;10.022;2023-02-16T01:06:12;1.00;99.90
5779;DHT22;2916;49.798;10.022;2023-02-16T01:09:08;1.00;99.90
5779;DHT22;2916;49.798;10.022;2023-02-16T01:11:53;1.00;99.90
5779;DHT22;2916;49.798;10.022;2023-02-16T01:14:20;1.00;99.90
5779;DHT22;2916;49.798;10.022;2023-02-16T01:16:47;1.00;99.90
5779;DHT22;2916;49.798;10.022;2023-02-16T01:19:15;0.90;99.90
5779;DHT22;2916;49.798;10.022;2023-02-16T01:21:42;0.70;99.90
5779;DHT22;2916;49.798;10.022;2023-02-16T01:24:09;0.70;99.90
5779;DHT22;2916;49.798;10.022;2023-02-16T01:26:38;0.70;99.90
5779;DHT22;2916;49.798;10.022;2023-02-16T01:29:05;0.70;99.90
5779;DHT22;2916;49.798;10.022;2023-02-16T01:31:32;0.80;99.90
5779;DHT22;2916;49.798;10.022;2023-02-16T01:33:59;0.90;99.90
5779;DHT22;2916;49.798;10.022;2023-02-16T01:36:32;0.80;99.90
5779;DHT22;2916;49.798;10.022;2023-02-16T01:39:00;0.80;99.90
5779;DHT22;2916;49.798;10.022;2023-02-16T01:41:40;0.70;99.90
5779;DHT22;2916;49.798;10.022;2023-02-16T01:44:13;0.70;99.90
5779;DHT22;2916;49.798;10.022;2023-02-16T01:46:44;0.70;99.90
5779;DHT22;2916;49.798;10.022;2023-02-16T01:49:15;0.70;99.90
5779;DHT22;2916;49.798;10.022;2023-02-16T01:51:49;0.70;99.90
5779;DHT22;2916;49.798;10.022;2023-02-16T01:54:26;0.70;99.90
5779;DHT22;2916;49.798;10.022;2023-02-16T01:56:59;0.70;99.90
5779;DHT22;2916;49.798;10.022;2023-02-16T01:59:35;0.60;99.90
5779;DHT22;2916;49.798;10.022;2023-02-16T02:02:11;0.50;99.90
5779;DHT22;2916;49.798;10.022;2023-02-16T02:04:42;0.40;99.90
5779;DHT22;2916;49.798;10.022;2023-02-16T02:07:36;0.30;99.90
5779;DHT22;2916;49.798;10.022;2023-02-16T02:10:10;0.30;99.90
5779;DHT22;2916;49.798;10.022;2023-02-16T02:12:47;0.30;99.90
5779;DHT22;2916;49.798;10.022;2023-02-16T02:15:17;0.40;99.90
5779;DHT22;2916;49.798;10.022;2023-02-16T02:17:45;0.40;99.90
5779;DHT22;2916;49.798;10.022;2023-02-16T02:20:17;0.40;99.90
5779;DHT22;2916;49.798;10.022;2023-02-16T02:26:47;0.50;99.90
5779;DHT22;2916;49.798;10.022;2023-02-16T02:29:45;0.50;99.90
5779;DHT22;2916;49.798;10.022;2023-02-16T02:32:25;0.50;99.90
5779;DHT22;2916;49.798;10.022;2023-02-16T02:35:01;0.50;99.90
5779;DHT22;2916;49.798;10.022;2023-02-16T02:37:39;0.50;99.90
5779;DHT22;2916;49.798;10.022;2023-02-16T02:40:12;0.50;99.90
5779;DHT22;2916;49.798;10.022;2023-02-16T02:42:51;0.40;99.90
5779;DHT22;2916;49.798;10.022;2023-02-16T02:45:24;0.40;99.90
5779;DHT22;2916;49.798;10.022;2023-02-16T02:47:53;0.40;99.90
5779;DHT22;2916;49.798;10.022;2023-02-16T02:50:37;0.30;99.90
5779;DHT22;2916;49.798;10.022;2023-02-16T02:53:09;0.40;99.90
5779;DHT22;2916;49.798;10.022;2023-02-16T02:55:40;0.50;99.90
5779;DHT22;2916;49.798;10.022;2023-02-16T02:58:32;0.50;99.90
5779;DHT22;2916;49.798;10.022;2023-02-16T03:01:35;0.50;99.90
5779;DHT22;2916;49.798;10.022;2023-02-16T03:04:05;0.50;99.90
5779;DHT22;2916;49.798;10.022;2023-02-16T03:06:36;0.40;99.90
5779;DHT22;2916;49.798;10.022;2023-02-16T03:09:06;0.40;99.90
5779;DHT22;2916;49.798;10.022;2023-02-16T03:11:33;0.20;99.90
5779;DHT22;2916;49.798;10.022;2023-02-16T03:14:23;0.20;99.90
5779;DHT22;2916;49.798;10.022;2023-02-16T03:16:54;0.10;99.90
5779;DHT22;2916;49.798;10.022;2023-02-16T03:19:42;0.00;99.90
5779;DHT22;2916;49.798;10.022;2023-02-16T03:22:27;0.10;99.90
5779;DHT22;2916;49.798;10.022;2023-02-16T03:25:12;0.00;99.90
5779;DHT22;2916;49.798;10.022;2023-02-16T03:27:59;0.00;99.90
5779;DHT22;2916;49.798;10.022;2023-02-16T03:30:48;0.00;99.90
5779;DHT22;2916;49.798;10.022;2023-02-16T03:33:15;0.10;99.90
5779;DHT22;2916;49.798;10.022;2023-02-16T03:35:44;0.00;99.90
5779;DHT22;2916;49.798;10.022;2023-02-16T03:38:11;0.00;99.90
5779;DHT22;2916;49.798;10.022;2023-02-16T03:40:39;-0.10;99.90
5779;DHT22;2916;49.798;10.022;2023-02-16T03:43:07;-0.10;99.90
5779;DHT22;2916;49.798;10.022;2023-02-16T03:45:39;-0.10;99.90
5779;DHT22;2916;49.798;10.022;2023-02-16T03:48:09;-0.10;99.90
5779;DHT22;2916;49.798;10.022;2023-02-16T03:50:36;-0.20;99.90
5779;DHT22;2916;49.798;10.022;2023-02-16T03:53:03;-0.20;99.90
5779;DHT22;2916;49.798;10.022;2023-02-16T03:55:33;-0.20;99.90
5779;DHT22;2916;49.798;10.022;2023-02-16T03:58:00;-0.20;99.90
5779;DHT22;2916;49.798;10.022;2023-02-16T04:00:27;-0.10;99.90
5779;DHT22;2916;49.798;10.022;2023-02-16T04:02:54;-0.20;99.90
5779;DHT22;2916;49.798;10.022;2023-02-16T04:05:23;-0.20;99.90
5779;DHT22;2916;49.798;10.022;2023-02-16T04:07:50;-0.30;99.90
5779;DHT22;2916;49.798;10.022;2023-02-16T04:10:17;-0.30;99.90
5779;DHT22;2916;49.798;10.022;2023-02-16T04:12:44;-0.30;99.90
5779;DHT22;2916;49.798;10.022;2023-02-16T04:15:11;-0.10;99.90
5779;DHT22;2916;49.798;10.022;2023-02-16T04:17:39;-0.10;99.90
5779;DHT22;2916;49.798;10.022;2023-02-16T04:20:09;-0.10;99.90
5779;DHT22;2916;49.798;10.022;2023-02-16T04:22:37;-0.10;99.90
5779;DHT22;2916;49.798;10.022;2023-02-16T04:25:05;-0.10;99.90
5779;DHT22;2916;49.798;10.022;2023-02-16T04:27:33;-0.20;99.90
5779;DHT22;2916;49.798;10.022;2023-02-16T04:30:00;-0.20;99.90
5779;DHT22;2916;49.798;10.022;2023-02-16T04:32:27;-0.30;99.90
5779;DHT22;2916;49.798;10.022;2023-02-16T04:34:54;-0.40;99.90
5779;DHT22;2916;49.798;10.022;2023-02-16T04:37:21;-0.50;99.90
5779;DHT22;2916;49.798;10.022;2023-02-16T04:39:49;-0.50;99.90
5779;DHT22;2916;49.798;10.022;2023-02-16T04:42:16;-0.50;99.90
5779;DHT22;2916;49.798;10.022;2023-02-16T04:44:43;-0.50;99.90
5779;DHT22;2916;49.798;10.022;2023-02-16T04:47:10;-0.50;99.90
5779;DHT22;2916;49.798;10.022;2023-02-16T04:49:37;-0.50;99.90
5779;DHT22;2916;49.798;10.022;2023-02-16T04:52:04;-0.50;99.90
5779;DHT22;2916;49.798;10.022;2023-02-16T04:54:32;-0.60;99.90
5779;DHT22;2916;49.798;10.022;2023-02-16T04:57:00;-0.50;99.90
5779;DHT22;2916;49.798;10.022;2023-02-16T04:59:27;-0.60;99.90
5779;DHT22;2916;49.798;10.022;2023-02-16T05:01:54;-0.60;99.90
5779;DHT22;2916;49.798;10.022;2023-02-16T05:04:22;-0.60;99.90
5779;DHT22;2916;49.798;10.022;2023-02-16T05:06:49;-0.60;99.90
5779;DHT22;2916;49.798;10.022;2023-02-16T05:09:16;-0.50;99.90
5779;DHT22;2916;49.798;10.022;2023-02-16T05:11:43;-0.50;99.90
5779;DHT22;2916;49.798;10.022;2023-02-16T05:14:44;-0.60;99.90
5779;DHT22;2916;49.798;10.022;2023-02-16T05:17:13;-0.60;99.90
5779;DHT22;2916;49.798;10.022;2023-02-16T05:19:42;-0.60;99.90
5779;DHT22;2916;49.798;10.022;2023-02-16T05:22:09;-0.60;99.90
5779;DHT22;2916;49.798;10.022;2023-02-16T05:24:36;-0.60;99.90
5779;DHT22;2916;49.798;10.022;2023-02-16T05:27:05;-0.60;99.90
5779;DHT22;2916;49.798;10.022;2023-02-16T05:29:33;-0.60;99.90
5779;DHT22;2916;49.798;10.022;2023-02-16T05:32:01;-0.60;99.90
5779;DHT22;2916;49.798;10.022;2023-02-16T05:34:28;-0.50;99.90
5779;DHT22;2916;49.798;10.022;2023-02-16T05:36:55;-0.70;99.90
5779;DHT22;2916;49.798;10.022;2023-02-16T05:39:22;-0.70;99.90
5779;DHT22;2916;49.798;10.022;2023-02-16T05:41:49;-0.70;99.90
5779;DHT22;2916;49.798;10.022;2023-02-16T05:44:16;-0.60;99.90
5779;DHT22;2916;49.798;10.022;2023-02-16T05:46:43;-0.70;99.90
5779;DHT22;2916;49.798;10.022;2023-02-16T05:49:13;-0.70;99.90
5779;DHT22;2916;49.798;10.022;2023-02-16T05:51:41;-0.70;99.90
5779;DHT22;2916;49.798;10.022;2023-02-16T05:54:08;-0.70;99.90
5779;DHT22;2916;49.798;10.022;2023-02-16T05:56:42;-0.80;99.90
5779;DHT22;2916;49.798;10.022;2023-02-16T05:59:09;-0.80;99.90
5779;DHT22;2916;49.798;10.022;2023-02-16T06:01:36;-0.80;99.90
5779;DHT22;2916;49.798;10.022;2023-02-16T06:04:05;-0.80;99.90
5779;DHT22;2916;49.798;10.022;2023-02-16T06:06:34;-0.70;99.90
5779;DHT22;2916;49.798;10.022;2023-02-16T06:09:01;-0.80;99.90
5779;DHT22;2916;49.798;10.022;2023-02-16T06:11:28;-0.70;99.90
5779;DHT22;2916;49.798;10.022;2023-02-16T06:14:06;-0.70;99.90
5779;DHT22;2916;49.798;10.022;2023-02-16T06:16:37;-0.80;99.90
5779;DHT22;2916;49.798;10.022;2023-02-16T06:19:05;-0.80;99.90
5779;DHT22;2916;49.798;10.022;2023-02-16T06:21:33;-0.70;99.90
5779;DHT22;2916;49.798;10.022;2023-02-16T06:24:01;-0.70;99.90
5779;DHT22;2916;49.798;10.022;2023-02-16T06:26:28;-0.80;99.90
5779;DHT22;2916;49.798;10.022;2023-02-16T06:28:55;-0.70;99.90
5779;DHT22;2916;49.798;10.022;2023-02-16T06:31:22;-0.60;99.90
5779;DHT22;2916;49.798;10.022;2023-02-16T06:33:49;-0.60;99.90
5779;DHT22;2916;49.798;10.022;2023-02-16T06:36:17;-0.70;99.90
5779;DHT22;2916;49.798;10.022;2023-02-16T06:38:46;-0.60;99.90
5779;DHT22;2916;49.798;10.022;2023-02-16T06:41:13;-0.60;99.90
5779;DHT22;2916;49.798;10.022;2023-02-16T06:43:56;-0.60;99.90
5779;DHT22;2916;49.798;10.022;2023-02-16T06:46:23;-0.60;99.90
5779;DHT22;2916;49.798;10.022;2023-02-16T06:48:50;-0.60;99.90
5779;DHT22;2916;49.798;10.022;2023-02-16T06:51:17;-0.60;99.90
5779;DHT22;2916;49.798;10.022;2023-02-16T06:53:46;-0.60;99.90
5779;DHT22;2916;49.798;10.022;2023-02-16T06:56:13;-0.50;99.90
5779;DHT22;2916;49.798;10.022;2023-02-16T06:58:41;-0.50;99.90
5779;DHT22;2916;49.798;10.022;2023-02-16T07:01:08;-0.50;99.90
5779;DHT22;2916;49.798;10.022;2023-02-16T07:03:35;-0.60;99.90
5779;DHT22;2916;49.798;10.022;2023-02-16T07:06:02;-0.60;99.90
5779;DHT22;2916;49.798;10.022;2023-02-16T07:08:29;-0.50;99.90
5779;DHT22;2916;49.798;10.022;2023-02-16T07:10:58;-0.50;99.90
5779;DHT22;2916;49.798;10.022;2023-02-16T07:13:25;-0.60;99.90
5779;DHT22;2916;49.798;10.022;2023-02-16T07:15:52;-0.60;99.90
5779;DHT22;2916;49.798;10.022;2023-02-16T07:18:19;-0.60;99.90
5779;DHT22;2916;49.798;10.022;2023-02-16T07:20:46;-0.60;99.90
5779;DHT22;2916;49.798;10.022;2023-02-16T07:23:13;-0.50;99.90
5779;DHT22;2916;49.798;10.022;2023-02-16T07:25:40;-0.50;99.90
5779;DHT22;2916;49.798;10.022;2023-02-16T07:28:09;-0.60;99.90
5779;DHT22;2916;49.798;10.022;2023-02-16T07:30:36;-0.70;99.90
5779;DHT22;2916;49.798;10.022;2023-02-16T07:33:03;-0.70;99.90
5779;DHT22;2916;49.798;10.022;2023-02-16T07:35:31;-0.60;99.90
5779;DHT22;2916;49.798;10.022;2023-02-16T07:37:58;-0.50;99.90
5779;DHT22;2916;49.798;10.022;2023-02-16T07:40:25;-0.50;99.90
5779;DHT22;2916;49.798;10.022;2023-02-16T07:42:52;-0.50;99.90
5779;DHT22;2916;49.798;10.022;2023-02-16T07:45:21;-0.50;99.90
5779;DHT22;2916;49.798;10.022;2023-02-16T07:47:48;-0.50;99.90
5779;DHT22;2916;49.798;10.022;2023-02-16T07:50:14;-0.60;99.90
5779;DHT22;2916;49.798;10.022;2023-02-16T07:52:42;-0.70;99.90
5779;DHT22;2916;49.798;10.022;2023-02-16T07:55:09;-0.70;99.90
5779;DHT22;2916;49.798;10.022;2023-02-16T07:57:38;-0.50;99.90
5779;DHT22;2916;49.798;10.022;2023-02-16T08:00:06;-0.50;99.90
5779;DHT22;2916;49.798;10.022;2023-02-16T08:02:34;-0.50;99.90
5779;DHT22;2916;49.798;10.022;2023-02-16T08:05:01;-0.50;99.90
5779;DHT22;2916;49.798;10.022;2023-02-16T08:07:28;-0.40;99.90
5779;DHT22;2916;49.798;10.022;2023-02-16T08:09:55;-0.40;99.90
5779;DHT22;2916;49.798;10.022;2023-02-16T08:12:23;-0.40;99.90
5779;DHT22;2916;49.798;10.022;2023-02-16T08:14:50;-0.40;99.90
5779;DHT22;2916;49.798;10.022;2023-02-16T08:17:17;-0.30;99.90
5779;DHT22;2916;49.798;10.022;2023-02-16T08:19:46;-0.40;99.90
5779;DHT22;2916;49.798;10.022;2023-02-16T08:22:13;-0.30;99.90
5779;DHT22;2916;49.798;10.022;2023-02-16T08:24:40;-0.30;99.90
5779;DHT22;2916;49.798;10.022;2023-02-16T08:27:08;-0.30;99.90
5779;DHT22;2916;49.798;10.022;2023-02-16T08:29:35;-0.20;99.90
5779;DHT22;2916;49.798;10.022;2023-02-16T08:32:02;-0.10;99.90
5779;DHT22;2916;49.798;10.022;2023-02-16T08:34:33;0.00;99.90
5779;DHT22;2916;49.798;10.022;2023-02-16T08:37:02;0.20;99.90
5779;DHT22;2916;49.798;10.022;2023-02-16T08:39:30;0.20;99.90
5779;DHT22;2916;49.798;10.022;2023-02-16T08:41:59;0.20;99.90
5779;DHT22;2916;49.798;10.022;2023-02-16T08:44:26;0.30;99.90
5779;DHT22;2916;49.798;10.022;2023-02-16T08:46:55;0.40;99.90
5779;DHT22;2916;49.798;10.022;2023-02-16T08:49:23;0.30;99.90
5779;DHT22;2916;49.798;10.022;2023-02-16T08:51:52;0.20;99.90
5779;DHT22;2916;49.798;10.022;2023-02-16T08:54:22;0.30;99.90
5779;DHT22;2916;49.798;10.022;2023-02-16T08:56:50;0.40;99.90
5779;DHT22;2916;49.798;10.022;2023-02-16T08:59:19;0.40;99.90
5779;DHT22;2916;49.798;10.022;2023-02-16T09:01:47;0.50;99.90
5779;DHT22;2916;49.798;10.022;2023-02-16T09:04:15;0.40;99.90
5779;DHT22;2916;49.798;10.022;2023-02-16T09:06:44;0.40;99.90
5779;DHT22;2916;49.798;10.022;2023-02-16T09:09:13;0.50;99.90
5779;DHT22;2916;49.798;10.022;2023-02-16T09:11:41;0.50;99.90
5779;DHT22;2916;49.798;10.022;2023-02-16T09:14:08;0.60;99.90
5779;DHT22;2916;49.798;10.022;2023-02-16T09:16:36;0.70;99.90
5779;DHT22;2916;49.798;10.022;2023-02-16T09:19:08;0.60;99.90
5779;DHT22;2916;49.798;10.022;2023-02-16T09:21:35;0.70;99.90
5779;DHT22;2916;49.798;10.022;2023-02-16T09:24:03;0.70;99.90
5779;DHT22;2916;49.798;10.022;2023-02-16T09:26:31;0.60;99.90
5779;DHT22;2916;49.798;10.022;2023-02-16T09:29:01;0.70;99.90
5779;DHT22;2916;49.798;10.022;2023-02-16T09:31:30;0.80;99.90
5779;DHT22;2916;49.798;10.022;2023-02-16T09:34:00;0.80;99.90
5779;DHT22;2916;49.798;10.022;2023-02-16T09:36:28;0.90;99.90
5779;DHT22;2916;49.798;10.022;2023-02-16T09:38:55;0.90;99.90
5779;DHT22;2916;49.798;10.022;2023-02-16T09:41:31;1.00;99.90
5779;DHT22;2916;49.798;10.022;2023-02-16T09:44:09;1.00;99.90
5779;DHT22;2916;49.798;10.022;2023-02-16T09:46:41;1.10;99.90
5779;DHT22;2916;49.798;10.022;2023-02-16T09:49:19;1.40;99.90
5779;DHT22;2916;49.798;10.022;2023-02-16T09:51:57;1.60;99.90
5779;DHT22;2916;49.798;10.022;2023-02-16T09:54:32;1.70;99.90
5779;DHT22;2916;49.798;10.022;2023-02-16T09:57:04;1.70;99.90
5779;DHT22;2916;49.798;10.022;2023-02-16T09:59:43;1.60;99.90
5779;DHT22;2916;49.798;10.022;2023-02-16T10:02:29;1.50;99.90
5779;DHT22;2916;49.798;10.022;2023-02-16T10:05:13;1.50;99.90
5779;DHT22;2916;49.798;10.022;2023-02-16T10:07:50;1.40;99.90
5779;DHT22;2916;49.798;10.022;2023-02-16T10:10:22;1.40;99.90
5779;DHT22;2916;49.798;10.022;2023-02-16T10:13:00;1.80;99.90
5779;DHT22;2916;49.798;10.022;2023-02-16T10:15:32;1.70;99.90
5779;DHT22;2916;49.798;10.022;2023-02-16T10:18:04;1.70;99.90
5779;DHT22;2916;49.798;10.022;2023-02-16T10:20:35;1.60;99.90
5779;DHT22;2916;49.798;10.022;2023-02-16T10:23:10;1.70;99.90
5779;DHT22;2916;49.798;10.022;2023-02-16T10:25:42;1.80;99.90
5779;DHT22;2916;49.798;10.022;2023-02-16T10:28:15;1.80;99.90
5779;DHT22;2916;49.798;10.022;2023-02-16T10:30:48;2.00;99.90
5779;DHT22;2916;49.798;10.022;2023-02-16T10:33:18;2.20;99.90
5779;DHT22;2916;49.798;10.022;2023-02-16T10:35:51;2.10;99.90
5779;DHT22;2916;49.798;10.022;2023-02-16T10:38:23;2.10;99.90
5779;DHT22;2916;49.798;10.022;2023-02-16T10:41:02;2.10;99.90
5779;DHT22;2916;49.798;10.022;2023-02-16T10:43:42;2.10;99.90
5779;DHT22;2916;49.798;10.022;2023-02-16T10:46:16;2.20;99.90
5779;DHT22;2916;49.798;10.022;2023-02-16T10:48:50;2.20;99.90
5779;DHT22;2916;49.798;10.022;2023-02-16T10:51:18;2.40;99.90
5779;DHT22;2916;49.798;10.022;2023-02-16T10:53:49;2.40;99.90
5779;DHT22;2916;49.798;10.022;2023-02-16T10:56:36;2.30;99.90
5779;DHT22;2916;49.798;10.022;2023-02-16T10:59:06;2.30;99.90
5779;DHT22;2916;49.798;10.022;2023-02-16T11:01:37;2.50;99.90
5779;DHT22;2916;49.798;10.022;2023-02-16T11:04:05;2.60;99.90
5779;DHT22;2916;49.798;10.022;2023-02-16T11:06:32;2.60;99.90
5779;DHT22;2916;49.798;10.022;2023-02-16T11:09:00;2.80;99.90
5779;DHT22;2916;49.798;10.022;2023-02-16T11:11:36;2.60;99.90
5779;DHT22;2916;49.798;10.022;2023-02-16T11:14:05;2.60;99.90
5779;DHT22;2916;49.798;10.022;2023-02-16T11:16:35;2.90;99.90
5779;DHT22;2916;49.798;10.022;2023-02-16T11:19:05;3.00;99.90
5779;DHT22;2916;49.798;10.022;2023-02-16T11:21:44;3.30;99.90
5779;DHT22;2916;49.798;10.022;2023-02-16T11:24:13;3.70;99.90
5779;DHT22;2916;49.798;10.022;2023-02-16T11:26:58;3.60;99.90
5779;DHT22;2916;49.798;10.022;2023-02-16T11:29:27;3.60;99.90
5779;DHT22;2916;49.798;10.022;2023-02-16T11:31:55;3.70;99.90
5779;DHT22;2916;49.798;10.022;2023-02-16T11:34:30;3.50;99.90
5779;DHT22;2916;49.798;10.022;2023-02-16T11:37:03;3.60;99.90
5779;DHT22;2916;49.798;10.022;2023-02-16T11:39:35;4.10;99.90
5779;DHT22;2916;49.798;10.022;2023-02-16T11:42:05;4.30;99.90
5779;DHT22;2916;49.798;10.022;2023-02-16T11:44:35;4.30;99.90
5779;DHT22;2916;49.798;10.022;2023-02-16T11:47:06;4.50;99.90
5779;DHT22;2916;49.798;10.022;2023-02-16T11:49:37;4.40;99.90
5779;DHT22;2916;49.798;10.022;2023-02-16T11:52:23;4.20;99.90
5779;DHT22;2916;49.798;10.022;2023-02-16T11:54:52;4.50;99.90
5779;DHT22;2916;49.798;10.022;2023-02-16T11:57:26;4.30;99.90
5779;DHT22;2916;49.798;10.022;2023-02-16T11:59:54;4.20;99.90
5779;DHT22;2916;49.798;10.022;2023-02-16T12:03:08;4.10;99.90
5779;DHT22;2916;49.798;10.022;2023-02-16T12:05:50;4.20;99.90
5779;DHT22;2916;49.798;10.022;2023-02-16T12:08:30;4.20;99.90
5779;DHT22;2916;49.798;10.022;2023-02-16T12:11:23;4.20;99.90
5779;DHT22;2916;49.798;10.022;2023-02-16T12:14:02;4.60;99.90
5779;DHT22;2916;49.798;10.022;2023-02-16T12:16:35;4.80;99.90
5779;DHT22;2916;49.798;10.022;2023-02-16T12:19:30;5.00;99.90
5779;DHT22;2916;49.798;10.022;2023-02-16T12:22:05;5.00;99.90
5779;DHT22;2916;49.798;10.022;2023-02-16T12:24:45;5.10;99.90
5779;DHT22;2916;49.798;10.022;2023-02-16T12:27:18;4.90;99.90
5779;DHT22;2916;49.798;10.022;2023-02-16T12:29:54;4.80;99.90
5779;DHT22;2916;49.798;10.022;2023-02-16T12:32:42;4.40;99.90
5779;DHT22;2916;49.798;10.022;2023-02-16T12:35:24;4.50;99.90
5779;DHT22;2916;49.798;10.022;2023-02-16T12:38:03;4.60;99.90
5779;DHT22;2916;49.798;10.022;2023-02-16T12:40:49;5.00;99.90
5779;DHT22;2916;49.798;10.022;2023-02-16T12:43:29;5.20;99.90
5779;DHT22;2916;49.798;10.022;2023-02-16T12:46:01;4.80;99.90
5779;DHT22;2916;49.798;10.022;2023-02-16T12:48:37;4.80;99.90
5779;DHT22;2916;49.798;10.022;2023-02-16T12:51:11;4.70;99.90
5779;DHT22;2916;49.798;10.022;2023-02-16T12:53:44;4.50;99.90
5779;DHT22;2916;49.798;10.022;2023-02-16T12:56:18;4.80;99.90
5779;DHT22;2916;49.798;10.022;2023-02-16T12:58:48;4.90;99.90
5779;DHT22;2916;49.798;10.022;2023-02-16T13:01:20;4.80;99.90
5779;DHT22;2916;49.798;10.022;2023-02-16T13:03:52;4.90;99.90
5779;DHT22;2916;49.798;10.022;2023-02-16T13:06:25;5.10;99.90
5779;DHT22;2916;49.798;10.022;2023-02-16T13:08:59;5.30;99.90
5779;DHT22;2916;49.798;10.022;2023-02-16T13:11:33;5.60;99.90
5779;DHT22;2916;49.798;10.022;2023-02-16T13:14:08;5.80;99.90
5779;DHT22;2916;49.798;10.022;2023-02-16T13:16:43;5.90;99.90
5779;DHT22;2916;49.798;10.022;2023-02-16T13:19:13;5.40;99.90
5779;DHT22;2916;49.798;10.022;2023-02-16T13:22:20;5.40;99.90
5779;DHT22;2916;49.798;10.022;2023-02-16T13:25:01;5.50;99.90
5779;DHT22;2916;49.798;10.022;2023-02-16T13:27:39;5.70;99.90
5779;DHT22;2916;49.798;10.022;2023-02-16T13:30:33;5.60;99.90
5779;DHT22;2916;49.798;10.022;2023-02-16T13:33:17;5.40;99.90
5779;DHT22;2916;49.798;10.022;2023-02-16T13:36:09;5.10;99.90
5779;DHT22;2916;49.798;10.022;2023-02-16T13:39:05;5.20;99.90
5779;DHT22;2916;49.798;10.022;2023-02-16T13:44:40;5.10;99.90
5779;DHT22;2916;49.798;10.022;2023-02-16T13:47:11;5.50;99.90
5779;DHT22;2916;49.798;10.022;2023-02-16T13:49:40;5.70;99.90
5779;DHT22;2916;49.798;10.022;2023-02-16T13:52:09;5.60;99.90
5779;DHT22;2916;49.798;10.022;2023-02-16T13:54:39;5.60;99.90
5779;DHT22;2916;49.798;10.022;2023-02-16T13:57:10;5.50;99.90
5779;DHT22;2916;49.798;10.022;2023-02-16T13:59:59;5.50;99.90
5779;DHT22;2916;49.798;10.022;2023-02-16T14:02:52;5.30;99.90
5779;DHT22;2916;49.798;10.022;2023-02-16T14:05:38;5.10;99.90
5779;DHT22;2916;49.798;10.022;2023-02-16T14:08:18;5.00;99.90
5779;DHT22;2916;49.798;10.022;2023-02-16T14:11:16;5.10;99.90
5779;DHT22;2916;49.798;10.022;2023-02-16T14:13:46;5.00;99.90
5779;DHT22;2916;49.798;10.022;2023-02-16T14:16:27;5.00;99.90
5779;DHT22;2916;49.798;10.022;2023-02-16T14:18:58;4.80;99.90
5779;DHT22;2916;49.798;10.022;2023-02-16T14:21:37;4.80;99.90
5779;DHT22;2916;49.798;10.022;2023-02-16T14:24:08;4.80;99.90
5779;DHT22;2916;49.798;10.022;2023-02-16T14:26:53;4.80;99.90
5779;DHT22;2916;49.798;10.022;2023-02-16T14:29:23;5.00;99.90
5779;DHT22;2916;49.798;10.022;2023-02-16T14:31:57;4.90;99.90
5779;DHT22;2916;49.798;10.022;2023-02-16T14:34:27;4.80;99.90
5779;DHT22;2916;49.798;10.022;2023-02-16T14:37:28;4.90;99.90
5779;DHT22;2916;49.798;10.022;2023-02-16T14:40:11;4.90;99.90
5779;DHT22;2916;49.798;10.022;2023-02-16T14:42:48;4.90;99.90
5779;DHT22;2916;49.798;10.022;2023-02-16T14:45:36;4.90;99.90
5779;DHT22;2916;49.798;10.022;2023-02-16T14:48:16;4.90;99.90
5779;DHT22;2916;49.798;10.022;2023-02-16T14:50:54;5.00;99.90
5779;DHT22;2916;49.798;10.022;2023-02-16T14:54:04;5.00;99.90
5779;DHT22;2916;49.798;10.022;2023-02-16T14:56:38;5.10;99.90
5779;DHT22;2916;49.798;10.022;2023-02-16T14:59:16;5.20;99.90
5779;DHT22;2916;49.798;10.022;2023-02-16T15:01:45;5.20;99.90
5779;DHT22;2916;49.798;10.022;2023-02-16T15:04:26;5.20;99.90
5779;DHT22;2916;49.798;10.022;2023-02-16T15:06:54;5.20;99.90
5779;DHT22;2916;49.798;10.022;2023-02-16T15:09:26;5.20;99.90
5779;DHT22;2916;49.798;10.022;2023-02-16T15:11:57;5.20;99.90
5779;DHT22;2916;49.798;10.022;2023-02-16T15:14:46;5.30;99.90
5779;DHT22;2916;49.798;10.022;2023-02-16T15:17:24;5.20;99.90
5779;DHT22;2916;49.798;10.022;2023-02-16T15:19:53;5.10;99.90
5779;DHT22;2916;49.798;10.022;2023-02-16T15:22:23;5.20;99.90
5779;DHT22;2916;49.798;10.022;2023-02-16T15:24:55;5.10;99.90
5779;DHT22;2916;49.798;10.022;2023-02-16T15:27:23;5.00;99.90
5779;DHT22;2916;49.798;10.022;2023-02-16T15:30:19;5.20;99.90
5779;DHT22;2916;49.798;10.022;2023-02-16T15:32:54;5.00;99.90
5779;DHT22;2916;49.798;10.022;2023-02-16T15:35:25;4.90;99.90
5779;DHT22;2916;49.798;10.022;2023-02-16T15:38:04;5.00;99.90
5779;DHT22;2916;49.798;10.022;2023-02-16T15:40:31;4.90;99.90
5779;DHT22;2916;49.798;10.022;2023-02-16T15:43:06;5.00;99.90
5779;DHT22;2916;49.798;10.022;2023-02-16T15:45:36;5.00;99.90
5779;DHT22;2916;49.798;10.022;2023-02-16T15:48:22;5.10;99.90
5779;DHT22;2916;49.798;10.022;2023-02-16T15:50:51;5.00;99.90
5779;DHT22;2916;49.798;10.022;2023-02-16T15:53:34;5.00;99.90
5779;DHT22;2916;49.798;10.022;2023-02-16T15:56:11;4.90;99.90
5779;DHT22;2916;49.798;10.022;2023-02-16T15:58:41;4.80;99.90
5779;DHT22;2916;49.798;10.022;2023-02-16T16:01:10;4.80;99.90
5779;DHT22;2916;49.798;10.022;2023-02-16T16:03:41;4.80;99.90
5779;DHT22;2916;49.798;10.022;2023-02-16T16:06:11;4.80;99.90
5779;DHT22;2916;49.798;10.022;2023-02-16T16:08:38;4.80;99.90
5779;DHT22;2916;49.798;10.022;2023-02-16T16:11:05;4.80;99.90
5779;DHT22;2916;49.798;10.022;2023-02-16T16:13:33;4.90;99.90
5779;DHT22;2916;49.798;10.022;2023-02-16T16:16:00;5.00;99.90
5779;DHT22;2916;49.798;10.022;2023-02-16T16:18:44;5.00;99.90
5779;DHT22;2916;49.798;10.022;2023-02-16T16:21:17;5.00;99.90
5779;DHT22;2916;49.798;10.022;2023-02-16T16:23:57;5.10;99.90
5779;DHT22;2916;49.798;10.022;2023-02-16T16:26:26;5.10;99.90
5779;DHT22;2916;49.798;10.022;2023-02-16T16:28:54;5.00;99.90
5779;DHT22;2916;49.798;10.022;2023-02-16T16:31:39;4.90;99.90
5779;DHT22;2916;49.798;10.022;2023-02-16T16:34:10;4.90;99.90
5779;DHT22;2916;49.798;10.022;2023-02-16T16:36:42;4.90;99.90
5779;DHT22;2916;49.798;10.022;2023-02-16T16:39:29;4.90;99.90